Time;durP1;ratioP1;P1;durP2;ratioP2;P2;SDS_P1;SDS_P2;PMS_P1;PMS_P2;Temp;Humidity;BMP_temperature;BMP_pressure;BME280_temperature;BME280_humidity;BME280_pressure;Samples;Min_cycle;Max_cycle;Signal;HPM_P1;HPM_P2
2021/12/17 00:00:58;;;;;;;33.27;11.60;;;;;;;;;;5048371;28;20553;-64
2021/12/17 00:04:02;;;;;;;38.40;12.27;;;;;;;;;;5065591;28;20056;-65
2021/12/17 00:08:51;;;;;;;32.08;11.80;;;;;;;;;;5064105;28;20537;-66
2021/12/17 00:11:19;;;;;;;30.45;11.32;;;;;;;;;;5061944;28;20048;-64
2021/12/17 00:13:47;;;;;;;31.48;11.82;;;;;;;;;;5056316;28;20060;-64
2021/12/17 00:16:22;;;;;;;36.50;13.23;;;;;;;;;;5060827;28;20363;-64
2021/12/17 00:46:35;;;;;;;31.40;12.38;;;;;;;;;;5058324;28;20048;-64
2021/12/17 00:49:02;;;;;;;29.15;11.75;;;;;;;;;;5055385;28;20076;-64
2021/12/17 00:53:58;;;;;;;26.67;12.05;;;;;;;;;;5056861;28;20048;-64
2021/12/17 00:56:25;;;;;;;31.92;11.77;;;;;;;;;;5057649;28;20685;-64
2021/12/17 00:58:51;;;;;;;29.45;11.48;;;;;;;;;;5058900;28;20539;-63
2021/12/17 01:01:19;;;;;;;27.73;11.52;;;;;;;;;;5065010;28;20594;-64
2021/12/17 01:03:45;;;;;;;24.95;10.80;;;;;;;;;;5055588;28;20048;-64
2021/12/17 01:06:12;;;;;;;29.45;11.45;;;;;;;;;;5058185;28;20087;-64
2021/12/17 01:08:38;;;;;;;31.77;12.02;;;;;;;;;;5057535;28;20044;-64
2021/12/17 01:11:05;;;;;;;28.10;11.32;;;;;;;;;;5064976;28;20090;-64
2021/12/17 01:13:32;;;;;;;32.47;11.57;;;;;;;;;;5057268;28;20047;-64
2021/12/17 01:15:58;;;;;;;33.10;13.32;;;;;;;;;;5063684;28;20790;-64
2021/12/17 01:18:37;;;;;;;31.17;12.82;;;;;;;;;;5056313;28;20063;-64
2021/12/17 01:21:23;;;;;;;;;;;;;;;;;;5054624;28;20097;-64
2021/12/17 01:43:04;;;;;;;31.92;12.57;;;;;;;;;;5061999;28;20250;-64
2021/12/17 01:45:36;;;;;;;35.40;12.63;;;;;;;;;;5062058;28;20481;-64
2021/12/17 01:48:05;;;;;;;31.08;12.18;;;;;;;;;;5059462;28;20716;-64
2021/12/17 02:01:37;;;;;;;33.55;12.13;;;;;;;;;;5060187;28;20560;-64
2021/12/17 02:04:04;;;;;;;32.78;12.32;;;;;;;;;;5060235;28;20048;-64
2021/12/17 02:06:34;;;;;;;28.52;11.57;;;;;;;;;;5058020;28;20703;-64
2021/12/17 02:09:01;;;;;;;37.60;13.02;;;;;;;;;;5052489;28;20049;-64
2021/12/17 02:12:02;;;;;;;30.85;10.82;;;;;;;;;;5053856;28;20055;-64
2021/12/17 02:19:48;;;;;;;31.30;11.38;;;;;;;;;;5061166;28;20048;-64
2021/12/17 02:33:10;;;;;;;34.50;11.75;;;;;;;;;;5053582;28;20056;-64
2021/12/17 02:35:43;;;;;;;23.30;8.98;;;;;;;;;;5053094;28;20048;-65
2021/12/17 02:38:12;;;;;;;25.85;9.48;;;;;;;;;;5052085;28;20075;-64
2021/12/17 02:46:08;;;;;;;23.10;9.50;;;;;;;;;;5055043;28;20048;-64
2021/12/17 02:48:36;;;;;;;28.35;10.02;;;;;;;;;;5065443;28;20051;-64
2021/12/17 02:51:03;;;;;;;25.83;10.30;;;;;;;;;;5051576;28;20389;-64
2021/12/17 02:53:30;;;;;;;29.85;10.18;;;;;;;;;;5063504;28;20421;-64
2021/12/17 02:56:04;;;;;;;25.85;10.52;;;;;;;;;;5062893;28;20044;-64
2021/12/17 02:58:31;;;;;;;21.75;9.18;;;;;;;;;;5064363;28;20796;-64
2021/12/17 03:00:58;;;;;;;18.35;8.23;;;;;;;;;;5059903;28;20063;-63
2021/12/17 03:03:27;;;;;;;24.45;8.80;;;;;;;;;;5064782;28;20091;-64
2021/12/17 03:05:55;;;;;;;17.40;8.02;;;;;;;;;;5062868;28;20143;-65
2021/12/17 03:08:21;;;;;;;21.65;8.50;;;;;;;;;;5059251;28;20738;-64
2021/12/17 03:10:48;;;;;;;17.13;7.80;;;;;;;;;;5057557;28;20063;-63
2021/12/17 03:13:16;;;;;;;16.25;7.55;;;;;;;;;;5046568;28;20170;-63
2021/12/17 03:15:54;;;;;;;19.05;8.48;;;;;;;;;;5063545;28;21177;-64
2021/12/17 03:26:34;;;;;;;16.38;8.00;;;;;;;;;;5063779;28;20328;-62
2021/12/17 03:29:04;;;;;;;14.95;7.35;;;;;;;;;;5047157;28;20052;-62
2021/12/17 03:31:30;;;;;;;17.85;8.05;;;;;;;;;;5060611;28;20075;-62
2021/12/17 03:34:16;;;;;;;17.92;7.45;;;;;;;;;;5054117;28;20135;-62
2021/12/17 03:36:43;;;;;;;15.75;7.82;;;;;;;;;;5054718;28;20052;-62
2021/12/17 03:39:10;;;;;;;19.65;8.02;;;;;;;;;;5056672;28;20588;-64
2021/12/17 03:41:38;;;;;;;17.65;7.97;;;;;;;;;;5055557;28;20048;-64
2021/12/17 03:44:06;;;;;;;16.52;7.80;;;;;;;;;;5050638;28;20353;-63
2021/12/17 03:46:33;;;;;;;21.10;8.23;;;;;;;;;;5062319;28;20052;-64
2021/12/17 03:48:59;;;;;;;19.20;8.38;;;;;;;;;;5059819;28;20328;-64
2021/12/17 03:51:26;;;;;;;17.38;8.13;;;;;;;;;;5054539;28;20583;-63
2021/12/17 03:53:54;;;;;;;15.40;6.93;;;;;;;;;;5055111;28;20049;-63
2021/12/17 03:56:20;;;;;;;15.27;7.57;;;;;;;;;;5061841;28;20717;-63
2021/12/17 03:58:49;;;;;;;17.98;7.70;;;;;;;;;;5059898;28;20597;-64
2021/12/17 04:01:15;;;;;;;;;;;;;;;;;;5054764;28;20160;-63
2021/12/17 04:03:42;;;;;;;16.35;7.50;;;;;;;;;;5060785;28;19924;-63
2021/12/17 04:06:08;;;;;;;17.20;7.93;;;;;;;;;;5061583;28;20476;-63
2021/12/17 04:08:35;;;;;;;17.85;7.80;;;;;;;;;;5061978;28;20313;-63
2021/12/17 04:11:06;;;;;;;20.20;7.45;;;;;;;;;;5059947;28;20049;-64
2021/12/17 04:13:36;;;;;;;21.42;8.77;;;;;;;;;;5061656;28;20143;-64
2021/12/17 04:16:06;;;;;;;21.10;7.63;;;;;;;;;;5060202;28;20075;-64
2021/12/17 04:18:33;;;;;;;19.27;7.28;;;;;;;;;;5056922;28;20061;-63
2021/12/17 04:21:02;;;;;;;17.30;7.30;;;;;;;;;;5062472;28;20052;-65
2021/12/17 04:23:31;;;;;;;21.42;8.35;;;;;;;;;;5055593;28;20759;-63
2021/12/17 04:25:57;;;;;;;20.55;8.15;;;;;;;;;;5054545;28;20044;-64
2021/12/17 04:28:23;;;;;;;18.48;7.32;;;;;;;;;;5055295;28;20049;-64
2021/12/17 04:30:50;;;;;;;19.70;7.45;;;;;;;;;;5055570;28;20079;-64
2021/12/17 04:33:17;;;;;;;18.05;7.70;;;;;;;;;;5054128;28;20075;-64
2021/12/17 04:35:43;;;;;;;21.80;8.35;;;;;;;;;;5058003;28;20041;-65
2021/12/17 04:38:11;;;;;;;19.10;7.30;;;;;;;;;;5059972;28;20048;-63
2021/12/17 04:40:40;;;;;;;19.60;7.88;;;;;;;;;;5061855;28;20053;-64
2021/12/17 04:59:37;;;;;;;23.77;9.00;;;;;;;;;;5056140;28;20048;-63
2021/12/17 05:02:04;;;;;;;28.33;10.32;;;;;;;;;;5058702;28;20079;-63
2021/12/17 05:04:30;;;;;;;27.25;9.52;;;;;;;;;;5059213;28;20687;-64
2021/12/17 05:06:56;;;;;;;24.83;9.73;;;;;;;;;;5058257;28;20506;-64
2021/12/17 05:09:32;;;;;;;21.67;9.10;;;;;;;;;;5060525;28;20044;-64
2021/12/17 05:19:59;;;;;;;24.55;8.98;;;;;;;;;;5054530;28;20559;-64
2021/12/17 05:22:27;;;;;;;24.17;9.13;;;;;;;;;;5055749;28;20048;-63
2021/12/17 05:24:54;;;;;;;24.42;9.43;;;;;;;;;;5055241;28;20055;-63
2021/12/17 05:27:20;;;;;;;26.05;9.35;;;;;;;;;;5055157;28;20048;-63
2021/12/17 05:29:46;;;;;;;25.35;10.05;;;;;;;;;;5061582;28;20044;-63
2021/12/17 05:32:13;;;;;;;23.88;9.23;;;;;;;;;;5062347;28;20040;-64
2021/12/17 05:34:39;;;;;;;28.95;10.27;;;;;;;;;;5059265;28;20134;-63
2021/12/17 05:37:06;;;;;;;24.20;9.00;;;;;;;;;;5062478;28;20059;-63
2021/12/17 05:39:34;;;;;;;28.48;9.75;;;;;;;;;;5062032;28;20118;-64
2021/12/17 05:42:00;;;;;;;24.85;9.18;;;;;;;;;;5061530;28;20558;-63
2021/12/17 05:44:26;;;;;;;22.70;9.52;;;;;;;;;;5062606;28;20059;-63
2021/12/17 05:46:53;;;;;;;26.30;10.50;;;;;;;;;;5059642;28;20386;-63
2021/12/17 05:49:20;;;;;;;30.67;10.68;;;;;;;;;;5058251;28;20161;-64
2021/12/17 05:51:47;;;;;;;26.30;9.90;;;;;;;;;;5047646;28;20055;-64
2021/12/17 05:54:14;;;;;;;28.70;9.77;;;;;;;;;;5061927;28;20056;-64
2021/12/17 05:56:41;;;;;;;26.80;10.50;;;;;;;;;;5057006;28;20834;-63
2021/12/17 05:59:07;;;;;;;25.55;9.43;;;;;;;;;;5059999;28;20060;-64
2021/12/17 06:01:33;;;;;;;25.13;10.45;;;;;;;;;;5059954;28;20059;-63
2021/12/17 06:04:00;;;;;;;27.60;10.20;;;;;;;;;;5047275;28;20064;-64
2021/12/17 06:06:31;;;;;;;26.77;10.60;;;;;;;;;;5058343;28;20096;-64
2021/12/17 06:08:57;;;;;;;27.50;10.60;;;;;;;;;;5057625;28;20323;-64
2021/12/17 06:11:24;;;;;;;28.30;9.57;;;;;;;;;;5059021;28;20052;-64
2021/12/17 06:13:50;;;;;;;27.60;10.02;;;;;;;;;;5062323;28;20445;-64
2021/12/17 06:16:17;;;;;;;26.95;10.93;;;;;;;;;;5053879;28;20048;-64
2021/12/17 06:18:43;;;;;;;24.85;9.75;;;;;;;;;;5060788;28;20044;-63
2021/12/17 06:21:10;;;;;;;31.33;10.43;;;;;;;;;;5061587;28;20290;-63
2021/12/17 06:23:37;;;;;;;28.75;11.05;;;;;;;;;;5060804;28;20064;-64
2021/12/17 06:26:04;;;;;;;29.90;12.48;;;;;;;;;;5059995;28;20079;-63
2021/12/17 06:28:30;;;;;;;28.75;11.05;;;;;;;;;;5066988;28;20047;-64
2021/12/17 06:30:56;;;;;;;26.77;10.73;;;;;;;;;;5061415;28;20048;-64
2021/12/17 06:33:23;;;;;;;25.15;10.10;;;;;;;;;;5053219;28;20437;-63
2021/12/17 06:35:49;;;;;;;25.17;10.32;;;;;;;;;;5061431;28;20049;-64
2021/12/17 06:38:16;;;;;;;29.42;11.18;;;;;;;;;;5066254;28;20079;-64
2021/12/17 06:40:42;;;;;;;26.10;9.55;;;;;;;;;;5064401;28;20059;-64
2021/12/17 06:43:08;;;;;;;29.35;9.32;;;;;;;;;;5067497;28;20056;-64
2021/12/17 06:45:44;;;;;;;26.15;9.48;;;;;;;;;;5064659;28;20045;-64
2021/12/17 06:48:10;;;;;;;24.40;9.77;;;;;;;;;;5064219;28;20056;-64
2021/12/17 07:10:17;;;;;;;22.23;8.52;;;;;;;;;;5031966;28;20543;-63
2021/12/17 07:39:40;;;;;;;25.38;8.63;;;;;;;;;;5035536;28;20049;-63
2021/12/17 07:42:06;;;;;;;18.58;8.10;;;;;;;;;;5023604;28;20053;-63
2021/12/17 07:44:32;;;;;;;23.48;8.98;;;;;;;;;;5049707;28;20049;-63
2021/12/17 07:46:59;;;;;;;20.33;7.32;;;;;;;;;;5057164;28;20533;-63
2021/12/17 07:49:25;;;;;;;19.75;8.43;;;;;;;;;;5059925;28;20055;-63
2021/12/17 07:51:51;;;;;;;22.80;8.43;;;;;;;;;;5065092;28;20715;-63
2021/12/17 07:54:18;;;;;;;19.73;7.80;;;;;;;;;;5047414;28;20048;-63
2021/12/17 07:56:45;;;;;;;18.20;7.60;;;;;;;;;;5061106;28;20044;-64
2021/12/17 07:59:12;;;;;;;19.17;7.55;;;;;;;;;;5058083;28;20087;-64
2021/12/17 08:01:38;;;;;;;18.33;7.53;;;;;;;;;;5046904;28;20119;-65
2021/12/17 08:04:06;;;;;;;16.48;7.47;;;;;;;;;;5057210;28;20428;-64
2021/12/17 08:06:33;;;;;;;18.83;7.45;;;;;;;;;;5057726;28;20744;-64
2021/12/17 08:09:00;;;;;;;16.70;7.43;;;;;;;;;;5056239;28;20056;-63
2021/12/17 08:11:27;;;;;;;20.08;7.38;;;;;;;;;;5063537;28;20060;-63
2021/12/17 08:13:56;;;;;;;13.90;6.22;;;;;;;;;;5062044;28;20056;-63
2021/12/17 08:29:28;;;;;;;13.50;6.03;;;;;;;;;;5064521;28;20055;-63
2021/12/17 08:31:55;;;;;;;12.02;5.07;;;;;;;;;;5062903;28;20055;-63
2021/12/17 08:34:22;;;;;;;13.48;6.18;;;;;;;;;;5058569;28;20083;-63
2021/12/17 08:36:48;;;;;;;13.80;5.60;;;;;;;;;;5057696;28;20072;-62
2021/12/17 08:39:14;;;;;;;14.43;6.10;;;;;;;;;;5058316;28;20048;-62
2021/12/17 08:41:41;;;;;;;15.68;5.82;;;;;;;;;;5055710;28;20049;-62
2021/12/17 08:44:08;;;;;;;15.88;6.03;;;;;;;;;;5064034;28;20706;-62
2021/12/17 08:46:35;;;;;;;13.90;5.20;;;;;;;;;;5065440;28;20071;-63
2021/12/17 08:49:03;;;;;;;13.18;5.32;;;;;;;;;;5063729;28;20047;-63
2021/12/17 08:51:30;;;;;;;11.98;4.97;;;;;;;;;;5065662;28;20508;-63
2021/12/17 08:53:56;;;;;;;13.82;5.35;;;;;;;;;;5063724;28;20543;-63
2021/12/17 08:56:27;;;;;;;11.05;5.38;;;;;;;;;;5062183;28;20044;-63
2021/12/17 08:58:53;;;;;;;10.52;5.00;;;;;;;;;;5061250;28;20064;-63
2021/12/17 09:01:21;;;;;;;11.13;4.43;;;;;;;;;;5048976;28;20108;-63
2021/12/17 09:03:47;;;;;;;13.23;5.03;;;;;;;;;;5057219;28;20048;-63
2021/12/17 09:06:17;;;;;;;10.63;4.47;;;;;;;;;;5063636;28;20076;-63
2021/12/17 09:08:43;;;;;;;10.68;4.40;;;;;;;;;;5065690;28;20056;-64
2021/12/17 09:11:09;;;;;;;12.30;4.70;;;;;;;;;;5063206;28;20051;-64
2021/12/17 09:13:36;;;;;;;9.07;4.25;;;;;;;;;;5061914;28;20044;-64
2021/12/17 09:16:06;;;;;;;11.10;4.78;;;;;;;;;;5056714;28;20045;-64
2021/12/17 09:18:33;;;;;;;12.40;4.55;;;;;;;;;;5061841;28;20045;-64
2021/12/17 09:21:00;;;;;;;9.32;4.20;;;;;;;;;;5062547;28;20056;-64
2021/12/17 09:23:26;;;;;;;9.23;4.70;;;;;;;;;;5056726;28;20060;-64
2021/12/17 09:25:53;;;;;;;12.25;4.57;;;;;;;;;;5056551;28;20045;-64
2021/12/17 09:28:19;;;;;;;7.00;3.42;;;;;;;;;;5062139;28;20048;-64
2021/12/17 09:30:46;;;;;;;14.20;6.63;;;;;;;;;;5061584;28;20638;-66
2021/12/17 09:33:12;;;;;;;10.63;4.55;;;;;;;;;;5064120;28;20048;-64
2021/12/17 09:35:38;;;;;;;7.25;3.72;;;;;;;;;;5055918;28;20076;-64
2021/12/17 09:38:04;;;;;;;7.90;3.35;;;;;;;;;;5056622;28;20064;-65
2021/12/17 09:40:31;;;;;;;7.20;3.20;;;;;;;;;;5058559;28;20057;-65
2021/12/17 09:42:57;;;;;;;5.50;2.85;;;;;;;;;;5062584;28;20641;-65
2021/12/17 09:45:24;;;;;;;5.50;2.92;;;;;;;;;;5063794;28;20052;-65
2021/12/17 09:47:50;;;;;;;5.75;2.90;;;;;;;;;;5061885;28;20056;-64
2021/12/17 09:50:18;;;;;;;7.15;3.60;;;;;;;;;;5064456;28;20048;-65
2021/12/17 09:52:44;;;;;;;5.80;3.17;;;;;;;;;;5063904;28;20056;-65
2021/12/17 09:55:11;;;;;;;7.57;3.40;;;;;;;;;;5062391;28;20040;-65
2021/12/17 09:57:37;;;;;;;5.10;2.75;;;;;;;;;;5067915;28;20059;-65
2021/12/17 10:00:15;;;;;;;5.28;2.17;;;;;;;;;;5068725;28;20056;-65
2021/12/17 10:02:44;;;;;;;3.03;1.60;;;;;;;;;;5059480;28;20048;-65
2021/12/17 10:05:10;;;;;;;;;;;;;;;;;;5060113;28;20067;-64
2021/12/17 10:07:38;;;;;;;4.60;1.17;;;;;;;;;;5064464;28;19924;-65
2021/12/17 10:10:05;;;;;;;3.35;1.60;;;;;;;;;;5068833;28;20045;-64
2021/12/17 10:12:33;;;;;;;1.90;1.30;;;;;;;;;;5065660;28;20052;-64
2021/12/17 10:15:11;;;;;;;3.63;1.83;;;;;;;;;;5059611;28;20060;-64
2021/12/17 10:17:54;;;;;;;4.05;1.90;;;;;;;;;;5062529;28;20049;-64
2021/12/17 10:20:22;;;;;;;4.45;2.15;;;;;;;;;;5065414;28;20055;-64
2021/12/17 10:22:59;;;;;;;5.28;2.38;;;;;;;;;;5063925;28;20059;-63
2021/12/17 10:25:26;;;;;;;3.80;2.30;;;;;;;;;;5063923;28;20588;-64
2021/12/17 10:27:57;;;;;;;4.80;2.33;;;;;;;;;;5066305;28;20049;-64
2021/12/17 10:30:24;;;;;;;4.88;2.50;;;;;;;;;;5064410;28;20788;-64
2021/12/17 10:32:54;;;;;;;4.40;2.40;;;;;;;;;;5064156;28;20412;-64
2021/12/17 10:35:29;;;;;;;4.03;2.65;;;;;;;;;;5061589;28;20056;-65
2021/12/17 10:38:02;;;;;;;2.95;2.13;;;;;;;;;;5057296;28;20044;-64
2021/12/17 10:40:35;;;;;;;4.85;2.45;;;;;;;;;;5061531;28;20052;-64
2021/12/17 10:43:10;;;;;;;4.30;2.30;;;;;;;;;;5055770;28;20101;-64
2021/12/17 10:45:44;;;;;;;3.85;2.10;;;;;;;;;;5056401;28;20052;-64
2021/12/17 10:50:59;;;;;;;4.65;2.10;;;;;;;;;;5063280;28;20057;-64
2021/12/17 10:53:25;;;;;;;5.85;2.30;;;;;;;;;;5064327;28;20052;-64
2021/12/17 10:55:55;;;;;;;4.70;2.53;;;;;;;;;;5047743;28;20044;-64
2021/12/17 10:58:22;;;;;;;5.95;2.08;;;;;;;;;;5064661;28;20687;-65
2021/12/17 11:00:53;;;;;;;5.95;2.60;;;;;;;;;;5064029;28;20062;-64
2021/12/17 11:03:20;;;;;;;4.00;2.20;;;;;;;;;;5047227;28;20052;-64
2021/12/17 11:05:46;;;;;;;5.95;2.88;;;;;;;;;;5057593;28;20067;-64
2021/12/17 11:08:42;;;;;;;7.07;2.97;;;;;;;;;;5063347;28;20048;-64
2021/12/17 11:11:10;;;;;;;4.85;2.33;;;;;;;;;;5043888;28;20049;-64
2021/12/17 11:13:37;;;;;;;5.68;2.42;;;;;;;;;;5061616;28;20051;-64
2021/12/17 11:16:04;;;;;;;4.47;2.10;;;;;;;;;;5055152;28;20059;-64
2021/12/17 11:18:30;;;;;;;5.18;2.10;;;;;;;;;;5056993;28;20056;-64
2021/12/17 11:20:56;;;;;;;4.38;2.22;;;;;;;;;;5054059;28;20059;-64
2021/12/17 11:23:23;;;;;;;3.95;2.30;;;;;;;;;;5059802;28;20051;-64
2021/12/17 11:25:53;;;;;;;5.60;2.42;;;;;;;;;;5059767;28;20753;-65
2021/12/17 11:28:20;;;;;;;5.57;2.45;;;;;;;;;;5064350;28;20150;-64
2021/12/17 11:30:47;;;;;;;7.60;2.38;;;;;;;;;;5064456;28;20425;-64
2021/12/17 11:33:13;;;;;;;7.38;2.10;;;;;;;;;;5062488;28;20055;-65
2021/12/17 11:35:42;;;;;;;5.07;2.03;;;;;;;;;;5063303;28;20700;-64
2021/12/17 11:38:30;;;;;;;4.75;2.28;;;;;;;;;;5063183;28;20137;-64
2021/12/17 11:41:17;;;;;;;4.90;2.28;;;;;;;;;;5058609;28;20059;-64
2021/12/17 11:43:53;;;;;;;3.83;1.83;;;;;;;;;;5059527;28;20059;-66
2021/12/17 11:46:24;;;;;;;6.15;1.98;;;;;;;;;;5060983;28;20151;-65
2021/12/17 11:48:52;;;;;;;5.50;2.45;;;;;;;;;;5062754;28;20084;-66
2021/12/17 11:51:23;;;;;;;5.72;2.58;;;;;;;;;;5063630;28;20115;-65
2021/12/17 11:53:57;;;;;;;4.40;2.63;;;;;;;;;;5063648;28;20044;-66
2021/12/17 11:56:42;;;;;;;5.15;2.58;;;;;;;;;;5065434;28;20048;-65
2021/12/17 11:59:30;;;;;;;5.00;2.20;;;;;;;;;;5058833;28;20049;-65
2021/12/17 12:02:05;;;;;;;5.60;2.63;;;;;;;;;;5062767;28;20048;-65
2021/12/17 12:04:36;;;;;;;5.95;2.30;;;;;;;;;;5064546;28;20572;-65
2021/12/17 12:07:04;;;;;;;4.68;2.22;;;;;;;;;;5062783;28;20519;-64
2021/12/17 12:09:56;;;;;;;5.75;2.40;;;;;;;;;;5063717;28;20149;-64
2021/12/17 12:12:28;;;;;;;7.53;2.92;;;;;;;;;;5058105;28;20043;-63
2021/12/17 12:14:54;;;;;;;3.55;1.70;;;;;;;;;;5059543;28;20756;-63
2021/12/17 12:17:39;;;;;;;3.15;1.73;;;;;;;;;;5057881;28;20048;-63
2021/12/17 12:20:06;;;;;;;3.22;1.55;;;;;;;;;;5056362;28;20460;-64
2021/12/17 12:22:32;;;;;;;3.10;1.50;;;;;;;;;;5060374;28;20048;-63
2021/12/17 12:25:17;;;;;;;3.30;1.90;;;;;;;;;;5057015;28;20056;-64
2021/12/17 12:27:46;;;;;;;2.95;1.55;;;;;;;;;;5049966;28;20056;-63
2021/12/17 12:30:13;;;;;;;3.58;1.40;;;;;;;;;;5058608;28;20056;-64
2021/12/17 12:33:13;;;;;;;2.80;1.80;;;;;;;;;;5060060;28;20577;-64
2021/12/17 12:35:39;;;;;;;1.80;1.45;;;;;;;;;;5025002;28;20512;-63
2021/12/17 12:38:20;;;;;;;2.00;1.48;;;;;;;;;;5058910;28;20705;-63
2021/12/17 12:40:51;;;;;;;1.65;1.38;;;;;;;;;;5059805;28;20060;-64
2021/12/17 12:43:25;;;;;;;2.08;1.40;;;;;;;;;;5059862;28;20052;-63
2021/12/17 12:45:51;;;;;;;3.05;1.90;;;;;;;;;;5042992;28;20592;-64
2021/12/17 12:48:31;;;;;;;3.88;1.80;;;;;;;;;;5062244;28;20048;-64
2021/12/17 12:51:34;;;;;;;4.28;1.80;;;;;;;;;;5056156;28;20116;-64
2021/12/17 12:54:00;;;;;;;2.50;1.42;;;;;;;;;;5046425;28;20403;-64
2021/12/17 12:56:26;;;;;;;3.33;1.80;;;;;;;;;;5061552;28;20048;-65
2021/12/17 12:58:53;;;;;;;2.38;1.60;;;;;;;;;;5059587;28;20049;-64
2021/12/17 13:01:20;;;;;;;3.25;1.80;;;;;;;;;;5055211;28;20045;-63
2021/12/17 13:03:51;;;;;;;5.45;1.85;;;;;;;;;;5059916;28;20317;-63
2021/12/17 13:06:19;;;;;;;6.85;1.80;;;;;;;;;;5062195;28;20458;-64
2021/12/17 13:08:56;;;;;;;3.80;2.20;;;;;;;;;;5054963;28;20059;-64
2021/12/17 13:11:24;;;;;;;2.63;1.80;;;;;;;;;;5059139;28;20052;-64
2021/12/17 13:13:55;;;;;;;2.38;1.42;;;;;;;;;;5058625;28;20060;-64
2021/12/17 13:21:59;;;;;;;3.40;1.90;;;;;;;;;;5056599;28;20420;-63
2021/12/17 13:24:29;;;;;;;3.45;1.88;;;;;;;;;;5048260;28;20048;-64
2021/12/17 13:26:57;;;;;;;2.72;1.70;;;;;;;;;;5054057;28;20059;-64
2021/12/17 13:29:30;;;;;;;2.50;1.67;;;;;;;;;;5056172;28;20047;-64
2021/12/17 13:31:59;;;;;;;3.28;1.90;;;;;;;;;;5058209;28;20059;-65
2021/12/17 13:34:31;;;;;;;2.28;1.60;;;;;;;;;;5059119;28;20877;-64
2021/12/17 13:37:01;;;;;;;4.28;1.67;;;;;;;;;;5061646;28;20615;-64
2021/12/17 13:39:29;;;;;;;3.83;2.30;;;;;;;;;;5057989;28;20180;-64
2021/12/17 13:41:55;;;;;;;5.05;2.80;;;;;;;;;;5061454;28;20048;-64
2021/12/17 13:44:34;;;;;;;5.28;1.90;;;;;;;;;;5055237;28;20053;-64
2021/12/17 13:47:11;;;;;;;3.88;2.35;;;;;;;;;;5054205;28;20612;-64
2021/12/17 13:49:39;;;;;;;3.40;2.30;;;;;;;;;;5059813;28;20060;-64
2021/12/17 13:52:06;;;;;;;2.38;1.80;;;;;;;;;;5059450;28;20045;-67
2021/12/17 13:54:32;;;;;;;4.90;3.55;;;;;;;;;;5054467;28;20065;-64
2021/12/17 13:56:59;;;;;;;5.88;3.60;;;;;;;;;;5058032;28;20052;-64
2021/12/17 13:59:29;;;;;;;4.35;2.42;;;;;;;;;;5057243;28;21297;-65
2021/12/17 14:01:56;;;;;;;5.80;2.42;;;;;;;;;;5059952;28;20397;-65
2021/12/17 14:04:22;;;;;;;6.85;3.00;;;;;;;;;;5062596;28;20079;-63
2021/12/17 14:06:53;;;;;;;3.70;2.05;;;;;;;;;;5060800;28;20736;-63
2021/12/17 14:09:20;;;;;;;4.00;2.05;;;;;;;;;;5061752;28;20049;-63
2021/12/17 14:11:47;;;;;;;4.88;2.00;;;;;;;;;;5060047;28;20452;-62
2021/12/17 14:14:35;;;;;;;5.00;2.17;;;;;;;;;;5055288;28;20045;-62
2021/12/17 14:17:03;;;;;;;3.80;2.10;;;;;;;;;;5053536;28;20052;-63
2021/12/17 14:19:46;;;;;;;5.13;2.00;;;;;;;;;;5053428;28;20944;-62
2021/12/17 14:22:27;;;;;;;3.80;2.10;;;;;;;;;;5053463;28;20512;-62
2021/12/17 14:24:55;;;;;;;6.78;2.15;;;;;;;;;;5054238;28;20040;-63
2021/12/17 14:27:21;;;;;;;5.50;3.00;;;;;;;;;;5061316;28;20140;-64
2021/12/17 14:30:00;;;;;;;13.07;8.10;;;;;;;;;;5059545;28;20596;-65
2021/12/17 14:32:27;;;;;;;30.92;21.52;;;;;;;;;;5059886;28;20049;-64
2021/12/17 14:34:53;;;;;;;10.18;6.20;;;;;;;;;;5059576;28;20056;-64
2021/12/17 14:37:19;;;;;;;6.78;3.42;;;;;;;;;;5061779;28;20080;-64
2021/12/17 14:39:48;;;;;;;4.72;2.25;;;;;;;;;;5060291;28;20427;-64
2021/12/17 14:42:29;;;;;;;3.50;1.98;;;;;;;;;;5054259;28;20048;-64
2021/12/17 14:44:59;;;;;;;3.55;2.28;;;;;;;;;;5057168;28;20063;-64
2021/12/17 14:47:32;;;;;;;5.72;2.83;;;;;;;;;;5065566;28;20103;-64
2021/12/17 15:01:09;;;;;;;5.43;3.05;;;;;;;;;;5064263;28;20059;-64
2021/12/17 15:03:41;;;;;;;6.22;3.22;;;;;;;;;;5065634;28;20049;-64
2021/12/17 15:06:12;;;;;;;6.47;3.65;;;;;;;;;;5064678;28;20175;-63
2021/12/17 15:08:39;;;;;;;4.22;2.85;;;;;;;;;;5049273;28;20365;-66
2021/12/17 15:11:14;;;;;;;4.90;3.35;;;;;;;;;;5064177;28;20434;-64
2021/12/17 15:13:40;;;;;;;8.77;4.78;;;;;;;;;;5063309;28;20055;-64
2021/12/17 15:16:06;;;;;;;4.97;2.95;;;;;;;;;;5064483;28;20048;-65
2021/12/17 15:18:33;;;;;;;4.22;2.72;;;;;;;;;;5064507;28;20052;-64
2021/12/17 15:20:59;;;;;;;5.43;2.63;;;;;;;;;;5064054;28;20052;-64
2021/12/17 15:23:26;;;;;;;5.38;2.80;;;;;;;;;;5064144;28;20074;-64
2021/12/17 15:25:52;;;;;;;4.88;3.03;;;;;;;;;;5063564;28;20048;-65
2021/12/17 15:28:22;;;;;;;5.22;2.90;;;;;;;;;;5062648;28;20053;-64
2021/12/17 15:30:49;;;;;;;5.30;2.97;;;;;;;;;;5064750;28;20048;-64
2021/12/17 15:33:16;;;;;;;5.13;3.20;;;;;;;;;;5065206;28;20154;-64
2021/12/17 15:35:43;;;;;;;8.20;4.30;;;;;;;;;;5060691;28;20674;-64
2021/12/17 15:38:10;;;;;;;6.65;3.60;;;;;;;;;;5064464;28;20563;-64
2021/12/17 15:40:37;;;;;;;5.22;3.47;;;;;;;;;;5063751;28;20048;-64
2021/12/17 15:43:04;;;;;;;6.70;3.53;;;;;;;;;;5064490;28;20498;-64
2021/12/17 15:45:31;;;;;;;5.45;3.22;;;;;;;;;;5060108;28;20504;-64
2021/12/17 15:47:58;;;;;;;6.50;3.47;;;;;;;;;;5056755;28;20166;-64
2021/12/17 15:50:24;;;;;;;6.18;3.65;;;;;;;;;;5058571;28;20099;-64
2021/12/17 15:52:51;;;;;;;8.43;4.50;;;;;;;;;;5062147;28;20040;-64
2021/12/17 15:55:21;;;;;;;6.22;3.88;;;;;;;;;;5064205;28;20044;-64
2021/12/17 15:57:48;;;;;;;7.25;5.05;;;;;;;;;;5063877;28;20044;-63
2021/12/17 16:00:15;;;;;;;8.57;4.72;;;;;;;;;;5052127;28;20041;-64
2021/12/17 16:02:42;;;;;;;5.97;4.05;;;;;;;;;;5061107;28;20059;-64
2021/12/17 16:05:10;;;;;;;5.57;3.83;;;;;;;;;;5059393;28;20076;-64
2021/12/17 16:07:36;;;;;;;6.65;4.20;;;;;;;;;;5055025;28;20056;-65
2021/12/17 16:10:24;;;;;;;6.47;4.25;;;;;;;;;;5055536;28;20053;-65
2021/12/17 16:18:16;;;;;;;6.72;4.00;;;;;;;;;;5054674;28;20064;-65
2021/12/17 16:21:02;;;;;;;5.53;4.00;;;;;;;;;;5058354;28;20059;-65
2021/12/17 16:23:29;;;;;;;6.28;3.53;;;;;;;;;;5062546;28;20071;-65
2021/12/17 16:25:56;;;;;;;8.93;4.43;;;;;;;;;;5060384;28;20367;-65
2021/12/17 16:28:22;;;;;;;7.65;4.50;;;;;;;;;;5061535;28;20052;-65
2021/12/17 16:30:48;;;;;;;7.65;4.75;;;;;;;;;;5058170;28;20529;-65
2021/12/17 16:33:15;;;;;;;8.60;5.55;;;;;;;;;;5055397;28;20733;-65
2021/12/17 16:35:41;;;;;;;7.00;4.57;;;;;;;;;;5057918;28;20052;-64
2021/12/17 16:38:08;;;;;;;8.98;4.55;;;;;;;;;;5059024;28;20049;-65
2021/12/17 16:40:36;;;;;;;7.15;4.95;;;;;;;;;;5056035;28;20126;-65
2021/12/17 16:43:04;;;;;;;;;;;;;;;;;;5063795;28;20056;-65
2021/12/17 16:45:34;;;;;;;6.65;4.80;;;;;;;;;;5045920;28;19928;-65
2021/12/17 16:48:04;;;;;;;7.15;4.90;;;;;;;;;;5062317;28;20879;-65
2021/12/17 16:50:31;;;;;;;6.50;4.25;;;;;;;;;;5055475;28;20048;-65
2021/12/17 16:52:59;;;;;;;7.10;4.72;;;;;;;;;;5058874;28;20067;-65
2021/12/17 16:55:27;;;;;;;8.25;4.40;;;;;;;;;;5053369;28;20049;-65
2021/12/17 16:57:53;;;;;;;9.23;5.20;;;;;;;;;;5052249;28;20059;-65
2021/12/17 17:00:19;;;;;;;9.98;5.82;;;;;;;;;;5053583;28;20049;-65
2021/12/17 17:02:46;;;;;;;10.77;6.55;;;;;;;;;;5053561;28;20061;-65
2021/12/17 17:05:12;;;;;;;9.10;4.97;;;;;;;;;;5055013;28;20055;-65
2021/12/17 17:07:38;;;;;;;7.05;4.32;;;;;;;;;;5048457;28;20049;-64
2021/12/17 17:10:05;;;;;;;5.25;3.65;;;;;;;;;;5049188;28;20056;-64
2021/12/17 17:12:34;;;;;;;5.15;3.50;;;;;;;;;;5054103;28;20112;-64
2021/12/17 17:15:00;;;;;;;;;;;;;;;;;;5060174;28;20060;-64
2021/12/17 17:17:26;;;;;;;4.85;3.45;;;;;;;;;;5056322;28;19927;-64
2021/12/17 17:19:53;;;;;;;6.25;3.80;;;;;;;;;;5053962;28;20578;-64
2021/12/17 17:22:19;;;;;;;6.63;3.78;;;;;;;;;;5057131;28;20126;-64
2021/12/17 17:24:45;;;;;;;4.72;2.97;;;;;;;;;;5060408;28;20332;-64
2021/12/17 17:27:12;;;;;;;4.75;3.15;;;;;;;;;;5060428;28;20048;-64
2021/12/17 17:29:38;;;;;;;5.10;3.47;;;;;;;;;;5061135;28;20052;-65
2021/12/17 17:32:04;;;;;;;4.90;3.58;;;;;;;;;;5057004;28;20379;-64
2021/12/17 17:34:31;;;;;;;4.43;3.50;;;;;;;;;;5062653;28;20059;-64
2021/12/17 17:36:57;;;;;;;4.85;3.25;;;;;;;;;;5060827;28;20069;-64
2021/12/17 17:39:24;;;;;;;5.68;3.20;;;;;;;;;;5058492;28;20055;-64
2021/12/17 17:41:50;;;;;;;4.18;2.70;;;;;;;;;;5061542;28;20067;-64
2021/12/17 17:44:17;;;;;;;3.92;2.85;;;;;;;;;;5059975;28;20052;-65
2021/12/17 17:46:43;;;;;;;5.13;3.13;;;;;;;;;;5058494;28;20048;-64
2021/12/17 17:49:09;;;;;;;4.80;3.28;;;;;;;;;;5063118;28;20093;-64
2021/12/17 17:51:36;;;;;;;4.85;3.20;;;;;;;;;;5060375;28;20047;-64
2021/12/17 17:54:02;;;;;;;4.68;3.00;;;;;;;;;;5060492;28;20776;-64
2021/12/17 17:56:29;;;;;;;5.70;3.38;;;;;;;;;;5062130;28;20040;-64
2021/12/17 17:58:56;;;;;;;5.38;3.65;;;;;;;;;;5057348;28;20052;-64
2021/12/17 18:01:23;;;;;;;5.38;3.10;;;;;;;;;;5058017;28;20056;-64
2021/12/17 18:03:49;;;;;;;6.10;2.88;;;;;;;;;;5057006;28;20048;-64
2021/12/17 18:06:16;;;;;;;5.43;3.25;;;;;;;;;;5054201;28;20761;-65
2021/12/17 18:08:42;;;;;;;4.63;3.00;;;;;;;;;;5055511;28;20055;-64